Time;durP1;ratioP1;P1;durP2;ratioP2;P2;SDS_P1;SDS_P2;PMS_P1;PMS_P2;Temp;Humidity;BMP_temperature;BMP_pressure;BME280_temperature;BME280_humidity;BME280_pressure;Samples;Min_cycle;Max_cycle;Signal;HPM_P1;HPM_P2
2019/07/21 00:00:25;;;;;;;4.249999;3.3;;;;;;;20.25;54.95703;95359;;;;
2019/07/21 00:01:42;;;;;;;4.249999;3.3;;;;;;;20.25;54.95703;95359;;;;
2019/07/21 00:02:43;;;;;;;4.249999;3.3;;;;;;;20.25;54.95703;95359;;;;
2019/07/21 00:03:44;;;;;;;4.249999;3.3;;;;;;;20.25;54.95703;95359;;;;
2019/07/21 00:04:45;;;;;;;4.249999;3.3;;;;;;;20.25;54.95703;95359;;;;
2019/07/21 00:05:46;;;;;;;4.249999;3.3;;;;;;;20.25;54.95703;95359;;;;
2019/07/21 00:06:47;;;;;;;4.249999;3.3;;;;;;;20.25;54.95703;95359;;;;
2019/07/21 00:07:48;;;;;;;4.249999;3.3;;;;;;;20.25;54.95703;95359;;;;
2019/07/21 00:08:49;;;;;;;4.249999;3.3;;;;;;;20.25;54.95703;95359;;;;
2019/07/21 00:09:51;;;;;;;4.249999;3.3;;;;;;;20.25;54.95703;95359;;;;
2019/07/21 00:10:52;;;;;;;3.3;3.1;;;;;;;20.17;55.25586;95353.2;;;;
2019/07/21 00:11:53;;;;;;;3.3;3.1;;;;;;;20.17;55.25586;95353.2;;;;
2019/07/21 00:12:54;;;;;;;3.3;3.1;;;;;;;20.17;55.25586;95353.2;;;;
2019/07/21 00:13:55;;;;;;;3.3;3.1;;;;;;;20.17;55.25586;95353.2;;;;
2019/07/21 00:14:56;;;;;;;3.3;3.1;;;;;;;20.17;55.25586;95353.2;;;;
2019/07/21 00:15:57;;;;;;;3.3;3.1;;;;;;;20.17;55.25586;95353.2;;;;
2019/07/21 00:16:58;;;;;;;3.3;3.1;;;;;;;20.17;55.25586;95353.2;;;;
2019/07/21 00:17:59;;;;;;;3.3;3.1;;;;;;;20.17;55.25586;95353.2;;;;
2019/07/21 00:19:01;;;;;;;3.3;3.1;;;;;;;20.17;55.25586;95353.2;;;;
2019/07/21 00:20:02;;;;;;;3.3;3.1;;;;;;;20.17;55.25586;95353.2;;;;
2019/07/21 00:21:03;;;;;;;3.3;3.1;;;;;;;20.17;55.25586;95353.2;;;;
2019/07/21 00:22:05;;;;;;;3.75;3.45;;;;;;;20.29;55.25977;95352.21;;;;
2019/07/21 00:23:06;;;;;;;3.75;3.45;;;;;;;20.29;55.25977;95352.21;;;;
2019/07/21 00:24:07;;;;;;;3.75;3.45;;;;;;;20.29;55.25977;95352.21;;;;
2019/07/21 00:25:08;;;;;;;3.75;3.45;;;;;;;20.29;55.25977;95352.21;;;;
2019/07/21 00:26:09;;;;;;;3.75;3.45;;;;;;;20.29;55.25977;95352.21;;;;
2019/07/21 00:27:10;;;;;;;3.75;3.45;;;;;;;20.29;55.25977;95352.21;;;;
2019/07/21 00:28:11;;;;;;;3.75;3.45;;;;;;;20.29;55.25977;95352.21;;;;
2019/07/21 00:29:12;;;;;;;3.75;3.45;;;;;;;20.29;55.25977;95352.21;;;;
2019/07/21 00:30:13;;;;;;;3.75;3.45;;;;;;;20.29;55.25977;95352.21;;;;
2019/07/21 00:31:15;;;;;;;3.75;3.45;;;;;;;20.29;55.25977;95352.21;;;;
2019/07/21 00:32:16;;;;;;;3.8;3.4;;;;;;;20.22;55.53711;95337.64;;;;
2019/07/21 00:33:17;;;;;;;3.8;3.4;;;;;;;20.22;55.53711;95337.64;;;;
2019/07/21 00:34:18;;;;;;;3.8;3.4;;;;;;;20.22;55.53711;95337.64;;;;
2019/07/21 00:35:19;;;;;;;3.8;3.4;;;;;;;20.22;55.53711;95337.64;;;;
2019/07/21 00:36:20;;;;;;;3.8;3.4;;;;;;;20.22;55.53711;95337.64;;;;
2019/07/21 00:37:21;;;;;;;3.8;3.4;;;;;;;20.22;55.53711;95337.64;;;;
2019/07/21 00:38:22;;;;;;;3.8;3.4;;;;;;;20.22;55.53711;95337.64;;;;
2019/07/21 00:39:23;;;;;;;3.8;3.4;;;;;;;20.22;55.53711;95337.64;;;;
2019/07/21 00:40:25;;;;;;;3.8;3.4;;;;;;;20.22;55.53711;95337.64;;;;
2019/07/21 00:41:27;;;;;;;3.8;3.4;;;;;;;20.22;55.53711;95337.64;;;;
2019/07/21 00:42:28;;;;;;;3.95;3.55;;;;;;;20.11;56.11719;95341.61;;;;
2019/07/21 00:43:29;;;;;;;3.95;3.55;;;;;;;20.11;56.11719;95341.61;;;;
2019/07/21 00:44:30;;;;;;;3.95;3.55;;;;;;;20.11;56.11719;95341.61;;;;
2019/07/21 00:45:31;;;;;;;3.95;3.55;;;;;;;20.11;56.11719;95341.61;;;;
2019/07/21 00:46:32;;;;;;;3.95;3.55;;;;;;;20.11;56.11719;95341.61;;;;
2019/07/21 00:47:33;;;;;;;3.95;3.55;;;;;;;20.11;56.11719;95341.61;;;;
2019/07/21 00:48:34;;;;;;;3.95;3.55;;;;;;;20.11;56.11719;95341.61;;;;
2019/07/21 00:49:35;;;;;;;3.95;3.55;;;;;;;20.11;56.11719;95341.61;;;;
2019/07/21 00:50:36;;;;;;;3.95;3.55;;;;;;;20.11;56.11719;95341.61;;;;
2019/07/21 00:51:38;;;;;;;3.95;3.55;;;;;;;20.11;56.11719;95341.61;;;;
2019/07/21 00:52:39;;;;;;;3.95;3.55;;;;;;;20.11;56.11719;95341.61;;;;
2019/07/21 00:53:40;;;;;;;3.75;3.45;;;;;;;19.94;56.52441;95341.68;;;;
2019/07/21 00:54:41;;;;;;;3.75;3.45;;;;;;;19.94;56.52441;95341.68;;;;
2019/07/21 00:55:43;;;;;;;3.75;3.45;;;;;;;19.94;56.52441;95341.68;;;;
2019/07/21 00:56:44;;;;;;;3.75;3.45;;;;;;;19.94;56.52441;95341.68;;;;
2019/07/21 00:57:45;;;;;;;3.75;3.45;;;;;;;19.94;56.52441;95341.68;;;;
2019/07/21 00:58:46;;;;;;;3.75;3.45;;;;;;;19.94;56.52441;95341.68;;;;
2019/07/21 00:59:47;;;;;;;3.75;3.45;;;;;;;19.94;56.52441;95341.68;;;;
2019/07/21 01:00:48;;;;;;;3.75;3.45;;;;;;;19.94;56.52441;95341.68;;;;
2019/07/21 01:01:49;;;;;;;3.75;3.45;;;;;;;19.94;56.52441;95341.68;;;;
2019/07/21 01:02:51;;;;;;;3.75;3.45;;;;;;;19.94;56.52441;95341.68;;;;
2019/07/21 01:03:52;;;;;;;3.8;3.5;;;;;;;19.83;56.80664;95330.58;;;;
2019/07/21 01:04:53;;;;;;;3.8;3.5;;;;;;;19.83;56.80664;95330.58;;;;
2019/07/21 01:05:54;;;;;;;3.8;3.5;;;;;;;19.83;56.80664;95330.58;;;;
2019/07/21 01:06:55;;;;;;;3.8;3.5;;;;;;;19.83;56.80664;95330.58;;;;
2019/07/21 01:07:56;;;;;;;3.8;3.5;;;;;;;19.83;56.80664;95330.58;;;;
2019/07/21 01:08:57;;;;;;;3.8;3.5;;;;;;;19.83;56.80664;95330.58;;;;
2019/07/21 01:09:59;;;;;;;3.8;3.5;;;;;;;19.83;56.80664;95330.58;;;;
2019/07/21 01:11:00;;;;;;;3.8;3.5;;;;;;;19.83;56.80664;95330.58;;;;
2019/07/21 01:12:01;;;;;;;3.8;3.5;;;;;;;19.83;56.80664;95330.58;;;;
2019/07/21 01:13:02;;;;;;;3.8;3.5;;;;;;;19.83;56.80664;95330.58;;;;
2019/07/21 01:14:04;;;;;;;3.8;3.5;;;;;;;19.83;56.80664;95330.58;;;;
2019/07/21 01:15:05;;;;;;;4.05;3.65;;;;;;;19.6;57.08594;95314.42;;;;
2019/07/21 01:16:07;;;;;;;4.05;3.65;;;;;;;19.6;57.08594;95314.42;;;;
2019/07/21 01:17:08;;;;;;;4.05;3.65;;;;;;;19.6;57.08594;95314.42;;;;
2019/07/21 01:18:09;;;;;;;4.05;3.65;;;;;;;19.6;57.08594;95314.42;;;;
2019/07/21 01:19:11;;;;;;;4.05;3.65;;;;;;;19.6;57.08594;95314.42;;;;
2019/07/21 01:20:12;;;;;;;4.05;3.65;;;;;;;19.6;57.08594;95314.42;;;;
2019/07/21 01:21:15;;;;;;;4.05;3.65;;;;;;;19.6;57.08594;95314.42;;;;
2019/07/21 01:22:16;;;;;;;4.05;3.65;;;;;;;19.6;57.08594;95314.42;;;;
2019/07/21 01:23:17;;;;;;;4.05;3.65;;;;;;;19.6;57.08594;95314.42;;;;
2019/07/21 01:24:18;;;;;;;4.05;3.65;;;;;;;19.6;57.08594;95314.42;;;;
2019/07/21 01:25:19;;;;;;;4.299999;3.75;;;;;;;19.45;57.61523;95321.42;;;;
2019/07/21 01:26:21;;;;;;;4.299999;3.75;;;;;;;19.45;57.61523;95321.42;;;;
2019/07/21 01:27:22;;;;;;;4.299999;3.75;;;;;;;19.45;57.61523;95321.42;;;;
2019/07/21 01:28:23;;;;;;;4.299999;3.75;;;;;;;19.45;57.61523;95321.42;;;;
2019/07/21 01:29:24;;;;;;;4.299999;3.75;;;;;;;19.45;57.61523;95321.42;;;;
2019/07/21 01:30:26;;;;;;;4.299999;3.75;;;;;;;19.45;57.61523;95321.42;;;;
2019/07/21 01:31:27;;;;;;;4.299999;3.75;;;;;;;19.45;57.61523;95321.42;;;;
2019/07/21 01:32:28;;;;;;;4.299999;3.75;;;;;;;19.45;57.61523;95321.42;;;;
2019/07/21 01:33:29;;;;;;;4.299999;3.75;;;;;;;19.45;57.61523;95321.42;;;;
2019/07/21 01:34:30;;;;;;;4.299999;3.75;;;;;;;19.45;57.61523;95321.42;;;;
2019/07/21 01:35:31;;;;;;;3.900001;3.55;;;;;;;19.23;58.16797;95320.1;;;;
2019/07/21 01:36:33;;;;;;;3.900001;3.55;;;;;;;19.23;58.16797;95320.1;;;;
2019/07/21 01:37:34;;;;;;;3.900001;3.55;;;;;;;19.23;58.16797;95320.1;;;;
2019/07/21 01:38:35;;;;;;;3.900001;3.55;;;;;;;19.23;58.16797;95320.1;;;;
2019/07/21 01:39:37;;;;;;;3.900001;3.55;;;;;;;19.23;58.16797;95320.1;;;;
2019/07/21 01:40:38;;;;;;;3.900001;3.55;;;;;;;19.23;58.16797;95320.1;;;;
2019/07/21 01:41:39;;;;;;;3.900001;3.55;;;;;;;19.23;58.16797;95320.1;;;;
2019/07/21 01:42:40;;;;;;;3.900001;3.55;;;;;;;19.23;58.16797;95320.1;;;;
2019/07/21 01:43:41;;;;;;;3.900001;3.55;;;;;;;19.23;58.16797;95320.1;;;;
2019/07/21 01:44:42;;;;;;;3.900001;3.55;;;;;;;19.23;58.16797;95320.1;;;;
2019/07/21 01:45:43;;;;;;;3.900001;3.55;;;;;;;19.23;58.16797;95320.1;;;;
2019/07/21 01:46:45;;;;;;;4;3.7;;;;;;;19.08;58.43359;95311.64;;;;
2019/07/21 01:47:46;;;;;;;4;3.7;;;;;;;19.08;58.43359;95311.64;;;;
2019/07/21 01:48:47;;;;;;;4;3.7;;;;;;;19.08;58.43359;95311.64;;;;
2019/07/21 01:49:48;;;;;;;4;3.7;;;;;;;19.08;58.43359;95311.64;;;;
2019/07/21 01:50:49;;;;;;;4;3.7;;;;;;;19.08;58.43359;95311.64;;;;
2019/07/21 01:51:51;;;;;;;4;3.7;;;;;;;19.08;58.43359;95311.64;;;;
2019/07/21 01:52:53;;;;;;;4;3.7;;;;;;;19.08;58.43359;95311.64;;;;
2019/07/21 01:53:54;;;;;;;4;3.7;;;;;;;19.08;58.43359;95311.64;;;;
2019/07/21 01:54:55;;;;;;;4;3.7;;;;;;;19.08;58.43359;95311.64;;;;
2019/07/21 01:55:56;;;;;;;4;3.7;;;;;;;19.08;58.43359;95311.64;;;;
2019/07/21 01:56:57;;;;;;;4.050001;3.65;;;;;;;18.84;59.0918;95305.28;;;;
2019/07/21 01:57:58;;;;;;;4.050001;3.65;;;;;;;18.84;59.0918;95305.28;;;;
2019/07/21 01:59:00;;;;;;;4.050001;3.65;;;;;;;18.84;59.0918;95305.28;;;;
2019/07/21 02:00:01;;;;;;;4.050001;3.65;;;;;;;18.84;59.0918;95305.28;;;;
2019/07/21 02:01:05;;;;;;;4.050001;3.65;;;;;;;18.84;59.0918;95305.28;;;;
2019/07/21 02:02:06;;;;;;;4.050001;3.65;;;;;;;18.84;59.0918;95305.28;;;;
2019/07/21 02:03:07;;;;;;;4.050001;3.65;;;;;;;18.84;59.0918;95305.28;;;;
2019/07/21 02:04:09;;;;;;;4.050001;3.65;;;;;;;18.84;59.0918;95305.28;;;;
2019/07/21 02:05:10;;;;;;;4.050001;3.65;;;;;;;18.84;59.0918;95305.28;;;;
2019/07/21 02:06:18;;;;;;;4.050001;3.65;;;;;;;18.84;59.0918;95305.28;;;;
2019/07/21 02:07:19;;;;;;;4.5;4.1;;;;;;;18.73;59.61328;95301.95;;;;
2019/07/21 02:08:20;;;;;;;4.5;4.1;;;;;;;18.73;59.61328;95301.95;;;;
2019/07/21 02:09:21;;;;;;;4.5;4.1;;;;;;;18.73;59.61328;95301.95;;;;
2019/07/21 02:10:22;;;;;;;4.5;4.1;;;;;;;18.73;59.61328;95301.95;;;;
2019/07/21 02:11:24;;;;;;;4.5;4.1;;;;;;;18.73;59.61328;95301.95;;;;
2019/07/21 02:12:25;;;;;;;4.5;4.1;;;;;;;18.73;59.61328;95301.95;;;;
2019/07/21 02:13:26;;;;;;;4.5;4.1;;;;;;;18.73;59.61328;95301.95;;;;
2019/07/21 02:14:27;;;;;;;4.5;4.1;;;;;;;18.73;59.61328;95301.95;;;;
2019/07/21 02:15:28;;;;;;;4.5;4.1;;;;;;;18.73;59.61328;95301.95;;;;
2019/07/21 02:16:29;;;;;;;4.5;4.1;;;;;;;18.73;59.61328;95301.95;;;;
2019/07/21 02:17:31;;;;;;;4.5;4.1;;;;;;;18.73;59.61328;95301.95;;;;
2019/07/21 02:18:32;;;;;;;4.65;4.149999;;;;;;;18.69;59.95898;95305.42;;;;
2019/07/21 02:19:33;;;;;;;4.65;4.149999;;;;;;;18.69;59.95898;95305.42;;;;
2019/07/21 02:20:34;;;;;;;4.65;4.149999;;;;;;;18.69;59.95898;95305.42;;;;
2019/07/21 02:21:36;;;;;;;4.65;4.149999;;;;;;;18.69;59.95898;95305.42;;;;
2019/07/21 02:22:38;;;;;;;4.65;4.149999;;;;;;;18.69;59.95898;95305.42;;;;
2019/07/21 02:23:39;;;;;;;4.65;4.149999;;;;;;;18.69;59.95898;95305.42;;;;
2019/07/21 02:24:40;;;;;;;4.65;4.149999;;;;;;;18.69;59.95898;95305.42;;;;
2019/07/21 02:25:41;;;;;;;4.65;4.149999;;;;;;;18.69;59.95898;95305.42;;;;
2019/07/21 02:26:42;;;;;;;4.65;4.149999;;;;;;;18.69;59.95898;95305.42;;;;
2019/07/21 02:27:44;;;;;;;4.65;4.149999;;;;;;;18.69;59.95898;95305.42;;;;
2019/07/21 02:28:45;;;;;;;4.25;3.9;;;;;;;18.83;60.13086;95305.44;;;;
2019/07/21 02:29:46;;;;;;;4.25;3.9;;;;;;;18.83;60.13086;95305.44;;;;
2019/07/21 02:30:47;;;;;;;4.25;3.9;;;;;;;18.83;60.13086;95305.44;;;;
2019/07/21 02:31:48;;;;;;;4.25;3.9;;;;;;;18.83;60.13086;95305.44;;;;
2019/07/21 02:32:49;;;;;;;4.25;3.9;;;;;;;18.83;60.13086;95305.44;;;;
2019/07/21 02:33:50;;;;;;;4.25;3.9;;;;;;;18.83;60.13086;95305.44;;;;
2019/07/21 02:34:52;;;;;;;4.25;3.9;;;;;;;18.83;60.13086;95305.44;;;;
2019/07/21 02:35:53;;;;;;;4.25;3.9;;;;;;;18.83;60.13086;95305.44;;;;
2019/07/21 02:36:54;;;;;;;4.25;3.9;;;;;;;18.83;60.13086;95305.44;;;;
2019/07/21 02:37:56;;;;;;;4.25;3.9;;;;;;;18.83;60.13086;95305.44;;;;
2019/07/21 02:38:59;;;;;;;4.25;3.9;;;;;;;18.83;60.13086;95305.44;;;;
2019/07/21 02:40:00;;;;;;;4.65;4.25;;;;;;;18.9;60.25098;95317.83;;;;
2019/07/21 02:41:01;;;;;;;4.65;4.25;;;;;;;18.9;60.25098;95317.83;;;;
2019/07/21 02:42:02;;;;;;;4.65;4.25;;;;;;;18.9;60.25098;95317.83;;;;
2019/07/21 02:43:04;;;;;;;4.65;4.25;;;;;;;18.9;60.25098;95317.83;;;;
2019/07/21 02:44:05;;;;;;;4.65;4.25;;;;;;;18.9;60.25098;95317.83;;;;
2019/07/21 02:45:06;;;;;;;4.65;4.25;;;;;;;18.9;60.25098;95317.83;;;;
2019/07/21 02:46:08;;;;;;;4.65;4.25;;;;;;;18.9;60.25098;95317.83;;;;
2019/07/21 02:47:09;;;;;;;4.65;4.25;;;;;;;18.9;60.25098;95317.83;;;;
2019/07/21 02:48:10;;;;;;;4.65;4.25;;;;;;;18.9;60.25098;95317.83;;;;
2019/07/21 02:49:11;;;;;;;4.65;4.25;;;;;;;18.9;60.25098;95317.83;;;;
2019/07/21 02:50:13;;;;;;;4.849999;4.149999;;;;;;;19.02;60.41895;95337.95;;;;
2019/07/21 02:51:14;;;;;;;4.849999;4.149999;;;;;;;19.02;60.41895;95337.95;;;;
2019/07/21 02:52:15;;;;;;;4.849999;4.149999;;;;;;;19.02;60.41895;95337.95;;;;
2019/07/21 02:53:16;;;;;;;4.849999;4.149999;;;;;;;19.02;60.41895;95337.95;;;;
2019/07/21 02:54:17;;;;;;;4.849999;4.149999;;;;;;;19.02;60.41895;95337.95;;;;
2019/07/21 02:55:18;;;;;;;4.849999;4.149999;;;;;;;19.02;60.41895;95337.95;;;;
2019/07/21 02:56:31;;;;;;;4.849999;4.149999;;;;;;;19.02;60.41895;95337.95;;;;
2019/07/21 02:57:32;;;;;;;4.849999;4.149999;;;;;;;19.02;60.41895;95337.95;;;;
2019/07/21 02:58:33;;;;;;;4.849999;4.149999;;;;;;;19.02;60.41895;95337.95;;;;
2019/07/21 02:59:35;;;;;;;4.849999;4.149999;;;;;;;19.02;60.41895;95337.95;;;;
2019/07/21 03:00:36;;;;;;;4.8;4.3;;;;;;;19.07;60.64453;95336.56;;;;
2019/07/21 03:01:37;;;;;;;4.8;4.3;;;;;;;19.07;60.64453;95336.56;;;;
2019/07/21 03:02:38;;;;;;;4.8;4.3;;;;;;;19.07;60.64453;95336.56;;;;
2019/07/21 03:03:39;;;;;;;4.8;4.3;;;;;;;19.07;60.64453;95336.56;;;;
2019/07/21 03:04:40;;;;;;;4.8;4.3;;;;;;;19.07;60.64453;95336.56;;;;
2019/07/21 03:05:41;;;;;;;4.8;4.3;;;;;;;19.07;60.64453;95336.56;;;;
2019/07/21 03:06:42;;;;;;;4.8;4.3;;;;;;;19.07;60.64453;95336.56;;;;
2019/07/21 03:07:43;;;;;;;4.8;4.3;;;;;;;19.07;60.64453;95336.56;;;;
2019/07/21 03:08:44;;;;;;;4.8;4.3;;;;;;;19.07;60.64453;95336.56;;;;
2019/07/21 03:09:46;;;;;;;4.8;4.3;;;;;;;19.07;60.64453;95336.56;;;;
2019/07/21 03:10:47;;;;;;;4.8;4.3;;;;;;;19.07;60.64453;95336.56;;;;
2019/07/21 03:11:48;;;;;;;10;5.3;;;;;;;19.3;60.99316;95352.23;;;;
2019/07/21 03:12:49;;;;;;;10;5.3;;;;;;;19.3;60.99316;95352.23;;;;
2019/07/21 03:13:50;;;;;;;10;5.3;;;;;;;19.3;60.99316;95352.23;;;;
2019/07/21 03:14:51;;;;;;;10;5.3;;;;;;;19.3;60.99316;95352.23;;;;
2019/07/21 03:15:52;;;;;;;10;5.3;;;;;;;19.3;60.99316;95352.23;;;;
2019/07/21 03:16:53;;;;;;;10;5.3;;;;;;;19.3;60.99316;95352.23;;;;
2019/07/21 03:17:54;;;;;;;10;5.3;;;;;;;19.3;60.99316;95352.23;;;;
2019/07/21 03:18:55;;;;;;;10;5.3;;;;;;;19.3;60.99316;95352.23;;;;
2019/07/21 03:19:57;;;;;;;10;5.3;;;;;;;19.3;60.99316;95352.23;;;;
2019/07/21 03:20:58;;;;;;;10;5.3;;;;;;;19.3;60.99316;95352.23;;;;
2019/07/21 03:21:59;;;;;;;8.299999;5.649999;;;;;;;19.26;61.71191;95371.7;;;;
2019/07/21 03:23:00;;;;;;;8.299999;5.649999;;;;;;;19.26;61.71191;95371.7;;;;
2019/07/21 03:24:01;;;;;;;8.299999;5.649999;;;;;;;19.26;61.71191;95371.7;;;;
2019/07/21 03:25:02;;;;;;;8.299999;5.649999;;;;;;;19.26;61.71191;95371.7;;;;
2019/07/21 03:26:04;;;;;;;8.299999;5.649999;;;;;;;19.26;61.71191;95371.7;;;;
2019/07/21 03:27:05;;;;;;;8.299999;5.649999;;;;;;;19.26;61.71191;95371.7;;;;
2019/07/21 03:28:06;;;;;;;8.299999;5.649999;;;;;;;19.26;61.71191;95371.7;;;;
2019/07/21 03:29:07;;;;;;;8.299999;5.649999;;;;;;;19.26;61.71191;95371.7;;;;
2019/07/21 03:30:08;;;;;;;8.299999;5.649999;;;;;;;19.26;61.71191;95371.7;;;;
2019/07/21 03:31:12;;;;;;;8.299999;5.649999;;;;;;;19.26;61.71191;95371.7;;;;
2019/07/21 03:32:13;;;;;;;7.149999;6.349999;;;;;;;19.15;63.75586;95424.77;;;;
2019/07/21 03:33:14;;;;;;;7.149999;6.349999;;;;;;;19.15;63.75586;95424.77;;;;
2019/07/21 03:34:15;;;;;;;7.149999;6.349999;;;;;;;19.15;63.75586;95424.77;;;;
2019/07/21 03:35:16;;;;;;;7.149999;6.349999;;;;;;;19.15;63.75586;95424.77;;;;
2019/07/21 03:36:17;;;;;;;7.149999;6.349999;;;;;;;19.15;63.75586;95424.77;;;;
2019/07/21 03:37:18;;;;;;;7.149999;6.349999;;;;;;;19.15;63.75586;95424.77;;;;
2019/07/21 03:38:19;;;;;;;7.149999;6.349999;;;;;;;19.15;63.75586;95424.77;;;;
2019/07/21 03:39:20;;;;;;;7.149999;6.349999;;;;;;;19.15;63.75586;95424.77;;;;
2019/07/21 03:40:22;;;;;;;7.149999;6.349999;;;;;;;19.15;63.75586;95424.77;;;;
2019/07/21 03:41:24;;;;;;;7.149999;6.349999;;;;;;;19.15;63.75586;95424.77;;;;
2019/07/21 03:42:25;;;;;;;7.149999;6.349999;;;;;;;19.15;63.75586;95424.77;;;;
2019/07/21 03:43:26;;;;;;;7.75;6.699999;;;;;;;19.07;67.02539;95554.17;;;;
2019/07/21 03:44:27;;;;;;;7.75;6.699999;;;;;;;19.07;67.02539;95554.17;;;;
2019/07/21 03:45:28;;;;;;;7.75;6.699999;;;;;;;19.07;67.02539;95554.17;;;;
2019/07/21 03:46:29;;;;;;;7.75;6.699999;;;;;;;19.07;67.02539;95554.17;;;;
2019/07/21 03:47:30;;;;;;;7.75;6.699999;;;;;;;19.07;67.02539;95554.17;;;;
2019/07/21 03:48:31;;;;;;;7.75;6.699999;;;;;;;19.07;67.02539;95554.17;;;;
2019/07/21 03:49:32;;;;;;;7.75;6.699999;;;;;;;19.07;67.02539;95554.17;;;;
2019/07/21 03:50:34;;;;;;;7.75;6.699999;;;;;;;19.07;67.02539;95554.17;;;;
2019/07/21 03:51:35;;;;;;;7.75;6.699999;;;;;;;19.07;67.02539;95554.17;;;;
2019/07/21 03:52:36;;;;;;;7.75;6.699999;;;;;;;19.07;67.02539;95554.17;;;;
2019/07/21 03:53:37;;;;;;;9.35;8.550001;;;;;;;18.82;71.56348;95576.57;;;;
2019/07/21 03:54:38;;;;;;;9.35;8.550001;;;;;;;18.82;71.56348;95576.57;;;;
2019/07/21 03:55:39;;;;;;;9.35;8.550001;;;;;;;18.82;71.56348;95576.57;;;;
2019/07/21 03:56:40;;;;;;;9.35;8.550001;;;;;;;18.82;71.56348;95576.57;;;;
2019/07/21 03:57:41;;;;;;;9.35;8.550001;;;;;;;18.82;71.56348;95576.57;;;;
2019/07/21 03:58:42;;;;;;;9.35;8.550001;;;;;;;18.82;71.56348;95576.57;;;;
2019/07/21 03:59:43;;;;;;;9.35;8.550001;;;;;;;18.82;71.56348;95576.57;;;;
2019/07/21 04:00:45;;;;;;;9.35;8.550001;;;;;;;18.82;71.56348;95576.57;;;;
2019/07/21 04:01:46;;;;;;;9.35;8.550001;;;;;;;18.82;71.56348;95576.57;;;;
2019/07/21 04:02:47;;;;;;;9.35;8.550001;;;;;;;18.82;71.56348;95576.57;;;;
2019/07/21 04:03:48;;;;;;;9.35;8.550001;;;;;;;18.82;71.56348;95576.57;;;;
2019/07/21 04:04:49;;;;;;;11.2;10.2;;;;;;;18.62;75.57715;95611.66;;;;
2019/07/21 04:05:50;;;;;;;11.2;10.2;;;;;;;18.62;75.57715;95611.66;;;;
2019/07/21 04:06:51;;;;;;;11.2;10.2;;;;;;;18.62;75.57715;95611.66;;;;
2019/07/21 04:07:52;;;;;;;11.2;10.2;;;;;;;18.62;75.57715;95611.66;;;;
2019/07/21 04:08:53;;;;;;;11.2;10.2;;;;;;;18.62;75.57715;95611.66;;;;
2019/07/21 04:09:54;;;;;;;11.2;10.2;;;;;;;18.62;75.57715;95611.66;;;;
2019/07/21 04:10:56;;;;;;;11.2;10.2;;;;;;;18.62;75.57715;95611.66;;;;
2019/07/21 04:11:57;;;;;;;11.2;10.2;;;;;;;18.62;75.57715;95611.66;;;;
2019/07/21 04:12:58;;;;;;;11.2;10.2;;;;;;;18.62;75.57715;95611.66;;;;
2019/07/21 04:13:59;;;;;;;11.2;10.2;;;;;;;18.62;75.57715;95611.66;;;;
2019/07/21 04:15:00;;;;;;;12.85;11.45;;;;;;;18.57;76.99414;95600.73;;;;
2019/07/21 04:16:01;;;;;;;12.85;11.45;;;;;;;18.57;76.99414;95600.73;;;;
2019/07/21 04:17:03;;;;;;;12.85;11.45;;;;;;;18.57;76.99414;95600.73;;;;
2019/07/21 04:18:04;;;;;;;12.85;11.45;;;;;;;18.57;76.99414;95600.73;;;;
2019/07/21 04:19:05;;;;;;;12.85;11.45;;;;;;;18.57;76.99414;95600.73;;;;
2019/07/21 04:20:06;;;;;;;12.85;11.45;;;;;;;18.57;76.99414;95600.73;;;;
2019/07/21 04:21:08;;;;;;;12.85;11.45;;;;;;;18.57;76.99414;95600.73;;;;
2019/07/21 04:22:09;;;;;;;12.85;11.45;;;;;;;18.57;76.99414;95600.73;;;;
2019/07/21 04:23:10;;;;;;;12.85;11.45;;;;;;;18.57;76.99414;95600.73;;;;
2019/07/21 04:24:12;;;;;;;12.85;11.45;;;;;;;18.57;76.99414;95600.73;;;;
2019/07/21 04:25:13;;;;;;;13.6;12.3;;;;;;;18.48;78.61035;95615.66;;;;
2019/07/21 04:26:14;;;;;;;13.6;12.3;;;;;;;18.48;78.61035;95615.66;;;;
2019/07/21 04:27:15;;;;;;;13.6;12.3;;;;;;;18.48;78.61035;95615.66;;;;
2019/07/21 04:28:16;;;;;;;13.6;12.3;;;;;;;18.48;78.61035;95615.66;;;;
2019/07/21 04:29:17;;;;;;;13.6;12.3;;;;;;;18.48;78.61035;95615.66;;;;
2019/07/21 04:30:18;;;;;;;13.6;12.3;;;;;;;18.48;78.61035;95615.66;;;;
2019/07/21 04:31:19;;;;;;;13.6;12.3;;;;;;;18.48;78.61035;95615.66;;;;
2019/07/21 04:32:21;;;;;;;13.6;12.3;;;;;;;18.48;78.61035;95615.66;;;;
2019/07/21 04:33:22;;;;;;;13.6;12.3;;;;;;;18.48;78.61035;95615.66;;;;
2019/07/21 04:34:23;;;;;;;13.6;12.3;;;;;;;18.48;78.61035;95615.66;;;;
2019/07/21 04:35:24;;;;;;;13.6;12.3;;;;;;;18.48;78.61035;95615.66;;;;
2019/07/21 04:36:25;;;;;;;13.75;12.4;;;;;;;18.45;80.67285;95641.79;;;;
2019/07/21 04:37:26;;;;;;;13.75;12.4;;;;;;;18.45;80.67285;95641.79;;;;
2019/07/21 04:38:27;;;;;;;13.75;12.4;;;;;;;18.45;80.67285;95641.79;;;;
2019/07/21 04:39:28;;;;;;;13.75;12.4;;;;;;;18.45;80.67285;95641.79;;;;
2019/07/21 04:40:29;;;;;;;13.75;12.4;;;;;;;18.45;80.67285;95641.79;;;;
2019/07/21 04:41:30;;;;;;;13.75;12.4;;;;;;;18.45;80.67285;95641.79;;;;
2019/07/21 04:42:32;;;;;;;13.75;12.4;;;;;;;18.45;80.67285;95641.79;;;;
2019/07/21 04:43:33;;;;;;;13.75;12.4;;;;;;;18.45;80.67285;95641.79;;;;
2019/07/21 04:44:34;;;;;;;13.75;12.4;;;;;;;18.45;80.67285;95641.79;;;;
2019/07/21 04:45:35;;;;;;;13.75;12.4;;;;;;;18.45;80.67285;95641.79;;;;
2019/07/21 04:46:36;;;;;;;13.8;12.5;;;;;;;18.38;81.67188;95639.86;;;;
2019/07/21 04:47:37;;;;;;;13.8;12.5;;;;;;;18.38;81.67188;95639.86;;;;
2019/07/21 04:48:38;;;;;;;13.8;12.5;;;;;;;18.38;81.67188;95639.86;;;;
2019/07/21 04:49:39;;;;;;;13.8;12.5;;;;;;;18.38;81.67188;95639.86;;;;
2019/07/21 04:50:40;;;;;;;13.8;12.5;;;;;;;18.38;81.67188;95639.86;;;;
2019/07/21 04:51:42;;;;;;;13.8;12.5;;;;;;;18.38;81.67188;95639.86;;;;
2019/07/21 04:52:43;;;;;;;13.8;12.5;;;;;;;18.38;81.67188;95639.86;;;;
2019/07/21 04:53:44;;;;;;;13.8;12.5;;;;;;;18.38;81.67188;95639.86;;;;
2019/07/21 04:54:45;;;;;;;13.8;12.5;;;;;;;18.38;81.67188;95639.86;;;;
2019/07/21 04:55:46;;;;;;;13.8;12.5;;;;;;;18.38;81.67188;95639.86;;;;
2019/07/21 04:56:47;;;;;;;13.8;12.5;;;;;;;18.38;81.67188;95639.86;;;;
2019/07/21 04:57:48;;;;;;;13.9;12.5;;;;;;;18.41;82.86133;95634.27;;;;
2019/07/21 04:58:49;;;;;;;13.9;12.5;;;;;;;18.41;82.86133;95634.27;;;;
2019/07/21 04:59:50;;;;;;;13.9;12.5;;;;;;;18.41;82.86133;95634.27;;;;
2019/07/21 05:00:51;;;;;;;13.9;12.5;;;;;;;18.41;82.86133;95634.27;;;;
2019/07/21 05:01:52;;;;;;;13.9;12.5;;;;;;;18.41;82.86133;95634.27;;;;
2019/07/21 05:02:53;;;;;;;13.9;12.5;;;;;;;18.41;82.86133;95634.27;;;;
2019/07/21 05:03:55;;;;;;;13.9;12.5;;;;;;;18.41;82.86133;95634.27;;;;
2019/07/21 05:04:56;;;;;;;13.9;12.5;;;;;;;18.41;82.86133;95634.27;;;;
2019/07/21 05:05:57;;;;;;;13.9;12.5;;;;;;;18.41;82.86133;95634.27;;;;
2019/07/21 05:06:58;;;;;;;13.9;12.5;;;;;;;18.41;82.86133;95634.27;;;;
2019/07/21 05:07:59;;;;;;;14.3;12.65;;;;;;;18.41;83.76367;95668.87;;;;
2019/07/21 05:09:00;;;;;;;14.3;12.65;;;;;;;18.41;83.76367;95668.87;;;;
2019/07/21 05:10:01;;;;;;;14.3;12.65;;;;;;;18.41;83.76367;95668.87;;;;
2019/07/21 05:11:03;;;;;;;14.3;12.65;;;;;;;18.41;83.76367;95668.87;;;;
2019/07/21 05:12:04;;;;;;;14.3;12.65;;;;;;;18.41;83.76367;95668.87;;;;
2019/07/21 05:13:05;;;;;;;14.3;12.65;;;;;;;18.41;83.76367;95668.87;;;;
2019/07/21 05:14:06;;;;;;;14.3;12.65;;;;;;;18.41;83.76367;95668.87;;;;
2019/07/21 05:15:07;;;;;;;14.3;12.65;;;;;;;18.41;83.76367;95668.87;;;;
2019/07/21 05:16:09;;;;;;;14.3;12.65;;;;;;;18.41;83.76367;95668.87;;;;
2019/07/21 05:17:10;;;;;;;14.3;12.65;;;;;;;18.41;83.76367;95668.87;;;;
2019/07/21 05:18:12;;;;;;;14.3;12.65;;;;;;;18.41;83.76367;95668.87;;;;
2019/07/21 05:19:13;;;;;;;14.6;13.2;;;;;;;18.52;85.04492;95705.22;;;;
2019/07/21 05:20:14;;;;;;;14.6;13.2;;;;;;;18.52;85.04492;95705.22;;;;
2019/07/21 05:21:15;;;;;;;14.6;13.2;;;;;;;18.52;85.04492;95705.22;;;;
2019/07/21 05:22:17;;;;;;;14.6;13.2;;;;;;;18.52;85.04492;95705.22;;;;
2019/07/21 05:23:18;;;;;;;14.6;13.2;;;;;;;18.52;85.04492;95705.22;;;;
2019/07/21 05:24:19;;;;;;;14.6;13.2;;;;;;;18.52;85.04492;95705.22;;;;
2019/07/21 05:25:20;;;;;;;14.6;13.2;;;;;;;18.52;85.04492;95705.22;;;;
2019/07/21 05:26:21;;;;;;;14.6;13.2;;;;;;;18.52;85.04492;95705.22;;;;
2019/07/21 05:27:22;;;;;;;14.6;13.2;;;;;;;18.52;85.04492;95705.22;;;;
2019/07/21 05:28:23;;;;;;;14.6;13.2;;;;;;;18.52;85.04492;95705.22;;;;
2019/07/21 05:29:24;;;;;;;14.75;13.35;;;;;;;18.55;85.74512;95728.33;;;;
2019/07/21 05:30:25;;;;;;;14.75;13.35;;;;;;;18.55;85.74512;95728.33;;;;
2019/07/21 05:31:26;;;;;;;14.75;13.35;;;;;;;18.55;85.74512;95728.33;;;;
2019/07/21 05:32:27;;;;;;;14.75;13.35;;;;;;;18.55;85.74512;95728.33;;;;
2019/07/21 05:33:29;;;;;;;14.75;13.35;;;;;;;18.55;85.74512;95728.33;;;;
2019/07/21 05:34:30;;;;;;;14.75;13.35;;;;;;;18.55;85.74512;95728.33;;;;
2019/07/21 05:35:31;;;;;;;14.75;13.35;;;;;;;18.55;85.74512;95728.33;;;;
2019/07/21 05:36:32;;;;;;;14.75;13.35;;;;;;;18.55;85.74512;95728.33;;;;
2019/07/21 05:37:33;;;;;;;14.75;13.35;;;;;;;18.55;85.74512;95728.33;;;;
2019/07/21 05:38:34;;;;;;;14.75;13.35;;;;;;;18.55;85.74512;95728.33;;;;
2019/07/21 05:39:35;;;;;;;15.35;13.85;;;;;;;18.57;87.0957;95761.28;;;;
2019/07/21 05:40:36;;;;;;;15.35;13.85;;;;;;;18.57;87.0957;95761.28;;;;
2019/07/21 05:41:37;;;;;;;15.35;13.85;;;;;;;18.57;87.0957;95761.28;;;;